ADDS METAR Data INFO
IDs: Format: Raw Decoded Include TAF

Data at: 0602 UTC 25 Jun 2018

KIAH 250553Z 16008KT 10SM SCT022 BKN250 28/24 A2996 RMK AO2 SLP145 T02780244 10322 20272 403440261 53014
KIAH 250453Z 16012KT 10SM FEW022 BKN250 27/24 A2994 RMK AO2 SLP136 T02720244
KIAH 250353Z 16010KT 10SM FEW025 BKN250 28/24 A2992 RMK AO2 SLP132 T02780239
KIAH 250253Z 17008KT 10SM FEW025 SCT250 28/24 A2992 RMK AO2 SLP131 T02830239 51013
KIAH 250153Z 15012G15KT 10SM FEW025 SCT250 29/23 A2991 RMK AO2 SLP126 T02890228
KIAH 250053Z 16012G21KT 10SM FEW030 SCT250 31/22 A2990 RMK AO2 SLP123 T03060217
KIAH 242353Z 16014KT 10SM SCT037 SCT250 32/24 A2988 RMK AO2 SLP118 T03220239 10344 20322 56006
KIAH 242253Z 16014KT 10SM SCT042 SCT250 32/23 A2988 RMK AO2 SLP118 T03220233
KIAH 242153Z 18013KT 10SM SCT044 SCT250 33/24 A2989 RMK AO2 SLP120 T03280239
KIAH 242053Z 16013G24KT 10SM SCT046 BKN250 33/23 A2990 RMK AO2 SLP124 T03330233 56007
KIAH 241953Z 17013G22KT 10SM FEW040 SCT050 BKN250 33/24 A2991 RMK AO2 SLP125 T03330244
KIAH 241853Z 17013G19KT 10SM FEW040 SCT050 SCT250 34/24 A2991 RMK AO2 SLP128 T03390239
KIAH 241753Z 16014G19KT 10SM FEW035 SCT048 SCT250 33/24 A2992 RMK AO2 SLP131 T03330239 10339 20261 50005
KIAH 241653Z 20008G15KT 10SM FEW035 SCT048 BKN250 32/24 A2992 RMK AO2 SLP132 T03220239
KIAH 241553Z 18009KT 10SM FEW028 SCT045 BKN250 31/25 A2991 RMK AO2 SLP128 T03110250
KIAH 241453Z 18008KT 10SM FEW024 SCT033 BKN250 31/25 A2991 RMK AO2 SLP126 SCT V BKN T03060250 53009
KIAH 241353Z 19008KT 10SM FEW017 SCT025 BKN250 28/26 A2990 RMK AO2 SLP123 SCT V BKN T02830256
KIAH 241253Z 17007KT 10SM FEW025 BKN250 27/26 A2987 RMK AO2 SLP114 T02720256
KIAH 241153Z 17006KT 10SM SCT024 BKN250 26/25 A2988 RMK AO2 SLP116 T02610250 10278 20261 58002
KIAH 241053Z 00000KT 10SM SCT025 27/25 A2989 RMK AO2 SLP122 T02670250
KIAH 240953Z 17006KT 10SM FEW020 27/25 A2988 RMK AO2 SLP117 T02670250
KIAH 240853Z 18005KT 10SM FEW018 SCT026 27/25 A2988 RMK AO2 SLP118 T02720250 56007
KIAH 240848Z 17005KT 10SM SCT018 SCT026 27/25 A2988 RMK AO2
KIAH 240805Z 18004KT 10SM SCT019 BKN024 27/25 A2989 RMK AO2 T02720250
KIAH 240753Z 17007KT 10SM FEW018 27/25 A2989 RMK AO2 SLP119 T02720250
KIAH 240653Z 17007KT 10SM FEW018 SCT035 27/25 A2990 RMK AO2 SLP125 T02720250
KIAH 240553Z 18009KT 10SM SCT016 28/25 A2988 RMK AO2 SLP118 T02780250 10317 20278 403500250 53016
KIAH 240453Z 17009KT 10SM SCT018 28/25 A2987 RMK AO2 SLP112 T02780250
KIAH 240353Z 17008KT 10SM SCT018 28/25 A2985 RMK AO2 SLP107 T02780250
KIAH 240253Z 16009KT 10SM FEW023 FEW250 28/25 A2984 RMK AO2 SLP102 T02830250 53013
KIAH 240153Z 17008KT 10SM FEW026 FEW250 29/24 A2982 RMK AO2 SLP096 T02890244
KIAH 240053Z 16013G18KT 10SM FEW030 SCT250 31/24 A2981 RMK AO2 SLP094 T03060244
KIAH 232353Z 16016G21KT 10SM SCT035 SCT250 32/25 A2980 RMK AO2 SLP089 T03170250 10350 20317 56011
KIAH 232253Z 18011KT 10SM SCT035 SCT250 33/25 A2981 RMK AO2 SLP093 T03330250
KIAH 232153Z 18011KT 10SM SCT042 32/25 A2982 RMK AO2 SLP097 T03220250
KIAH 232053Z 18009KT 10SM SCT046 34/24 A2983 RMK AO2 SLP100 T03440239 56017
KIAH 231953Z 18010G15KT 10SM SCT043 SCT065 34/24 A2984 RMK AO2 SLP103 T03440239
KIAH 231853Z 17009G15KT 10SM SCT045 BKN060 34/24 A2987 RMK AO2 SLP113 T03440239